Terminal Aerodrome Forecast
Issued by NWS Charleston, WV

Current Version | Previous Version | Graphics & Text | Print | Product List | Glossary On
Versions: 1 2 3 4 5 6 7 8 9 10 11 12 13 14 15 16 17 18 19 20 21 22 23
176
FTUS41 KRLX 180855 AAA
TAFHTS
TAF AMD
KHTS 180855Z 1809/1906 21005KT P6SM SKC
     FM181500 22005KT P6SM BKN150
     FM182200 23006KT P6SM VCSH OVC060
     FM190100 22005KT P6SM OVC020=

USA.gov is the U.S. government's official web portal to all federal, state and local government web resources and services.